Flight Number: EUR3036 Duration: 11:00
Departure: Helsinki Vantaa (EFHK) at 08:00 Distance: 4494 Nm
Arrival: Miami Int'l (KMIA) at 19:00 Equipment: A340

Weather Information
Helsinki-Vantaa, Finland (EFHK) 60-19N 024-58E 56M Oct 17, 2018 - 11:50 PM EDT / 2018.10.18 0350 UTC
Wind: from the S (180 degrees) at 8 MPH (7 KT):0
Visibility: 1 mile(s):0
Sky conditions: overcast Weather: mist Temperature: 53 F (12 C) Dew Point: 53 F (12 C) Relative Humidity: 100% Pressure (altimeter): 29.94 in. Hg (1014 hPa)
ob: EFHK 180350Z 18007KT 2500 BR BKN001 OVC002 12/12 Q1014 NOSIG cycle: 4
Sunrise: 05:13 Sunset: 14:56 (UTC)

MIAMI INTERNATIONAL AIRPORT , FL, United States (KMIA) 25-47N 080-19W 8M Oct 17, 2018 - 11:53 PM EDT / 2018.10.18 0353 UTC
Wind: from the E (080 degrees) at 7 MPH (6 KT):0
Visibility: 10 mile(s):0
Sky conditions: mostly clear Temperature: 81.0 F (27.2 C) Dew Point: 75.0 F (23.9 C) Relative Humidity: 82% Pressure (altimeter): 30.12 in. Hg (1019 hPa)
ob: KMIA 180353Z 08006KT 10SM FEW024 27/24 A3012 RMK AO2 SLP201 T02720239 cycle: 4
Sunrise: 11:24 Sunset: 22:47 (UTC)

TAF:2018/10/18 03:03 TAF AMD KMIA 180300Z 1803/1906 07008KT P6SM SCT025 FM181600 09010KT P6SM SCT025 SCT250 FM181800 08012KT P6SM BKN030 BKN250 FM190200 07008KT P6SM FEW035 SCT250

This route has never been flown.

Route map